createdAt,value
2022-09-29T00:01:19.432Z,100.00
2022-09-29T00:03:47.726Z,100.00
2022-09-29T00:06:18.852Z,100.00
2022-09-29T00:08:47.642Z,100.00
2022-09-29T00:11:19.445Z,100.00
2022-09-29T00:13:48.256Z,100.00
2022-09-29T00:16:17.182Z,100.00
2022-09-29T00:18:46.260Z,100.00
2022-09-29T00:21:21.623Z,100.00
2022-09-29T00:23:50.960Z,100.00
2022-09-29T00:26:23.033Z,100.00
2022-09-29T00:28:58.288Z,100.00
2022-09-29T00:31:30.721Z,100.00
2022-09-29T00:33:59.600Z,100.00
2022-09-29T00:36:31.165Z,100.00
2022-09-29T00:39:00.303Z,100.00
2022-09-29T00:41:36.053Z,100.00
2022-09-29T00:44:52.324Z,100.00
2022-09-29T00:47:22.161Z,100.00
2022-09-29T00:49:59.061Z,100.00
2022-09-29T00:52:38.041Z,100.00
2022-09-29T00:55:15.701Z,100.00
2022-09-29T00:58:02.015Z,100.00
2022-09-29T01:00:30.532Z,100.00
2022-09-29T01:03:08.554Z,100.00
2022-09-29T01:05:43.150Z,100.00
2022-09-29T01:08:39.179Z,100.00
2022-09-29T01:11:09.842Z,100.00
2022-09-29T01:13:39.682Z,100.00
2022-09-29T01:16:08.353Z,100.00
2022-09-29T01:18:37.962Z,100.00
2022-09-29T01:21:52.381Z,100.00
2022-09-29T01:24:57.426Z,100.00
2022-09-29T01:28:01.772Z,100.00
2022-09-29T01:31:05.034Z,100.00
2022-09-29T01:34:12.313Z,100.00
2022-09-29T01:37:28.358Z,100.00
2022-09-29T01:40:23.683Z,100.00
2022-09-29T01:43:04.879Z,100.00
2022-09-29T01:45:38.791Z,100.00
2022-09-29T01:48:14.833Z,100.00
2022-09-29T01:50:49.019Z,100.00
2022-09-29T01:53:26.811Z,100.00
2022-09-29T01:56:04.031Z,100.00
2022-09-29T01:58:54.011Z,100.00
2022-09-29T02:01:27.369Z,100.00
2022-09-29T02:04:03.446Z,100.00
2022-09-29T02:06:45.167Z,100.00
2022-09-29T02:09:25.036Z,100.00
2022-09-29T02:11:55.330Z,100.00
2022-09-29T02:14:29.087Z,100.00
2022-09-29T02:17:08.094Z,100.00
2022-09-29T02:19:42.264Z,100.00
2022-09-29T02:22:10.670Z,100.00
2022-09-29T02:24:39.254Z,100.00
2022-09-29T02:27:08.164Z,100.00
2022-09-29T02:29:38.226Z,100.00
2022-09-29T02:32:09.938Z,100.00
2022-09-29T02:34:46.093Z,100.00
2022-09-29T02:37:54.692Z,100.00
2022-09-29T02:40:44.667Z,100.00
2022-09-29T02:43:42.261Z,100.00
2022-09-29T02:46:35.584Z,100.00
2022-09-29T02:49:22.698Z,100.00
2022-09-29T02:52:39.996Z,100.00
2022-09-29T02:55:19.921Z,100.00
2022-09-29T02:57:52.667Z,100.00
2022-09-29T03:00:21.974Z,100.00
2022-09-29T03:02:50.369Z,100.00
2022-09-29T03:05:22.692Z,100.00
2022-09-29T03:07:50.969Z,100.00
2022-09-29T03:10:19.751Z,100.00
2022-09-29T03:12:48.191Z,100.00
2022-09-29T03:15:17.166Z,100.00
2022-09-29T03:17:45.425Z,100.00
2022-09-29T03:20:13.829Z,100.00
2022-09-29T03:22:42.131Z,100.00
2022-09-29T03:25:14.896Z,100.00
2022-09-29T03:27:43.715Z,100.00
2022-09-29T03:30:13.574Z,100.00
2022-09-29T03:32:43.872Z,100.00
2022-09-29T03:35:12.445Z,100.00
2022-09-29T03:37:40.853Z,100.00
2022-09-29T03:40:10.299Z,100.00
2022-09-29T03:42:38.779Z,100.00
2022-09-29T03:45:07.739Z,100.00
2022-09-29T03:47:36.463Z,100.00
2022-09-29T03:50:05.196Z,100.00
2022-09-29T03:52:33.578Z,100.00
2022-09-29T03:55:01.949Z,100.00
2022-09-29T03:57:30.281Z,100.00
2022-09-29T03:59:58.525Z,100.00
2022-09-29T04:02:26.876Z,100.00
2022-09-29T04:04:55.138Z,100.00
2022-09-29T04:07:23.420Z,100.00
2022-09-29T04:09:52.086Z,100.00
2022-09-29T04:12:20.706Z,100.00
2022-09-29T04:14:49.459Z,100.00
2022-09-29T04:17:17.714Z,100.00
2022-09-29T04:19:46.039Z,100.00
2022-09-29T04:22:20.244Z,100.00
2022-09-29T04:24:48.584Z,100.00
2022-09-29T04:27:17.374Z,100.00
2022-09-29T04:29:45.732Z,100.00
2022-09-29T04:32:14.472Z,100.00
2022-09-29T04:34:43.149Z,100.00
2022-09-29T04:37:11.500Z,100.00
2022-09-29T04:39:40.154Z,100.00
2022-09-29T04:42:08.583Z,100.00
2022-09-29T04:44:36.931Z,100.00
2022-09-29T04:47:07.089Z,100.00
2022-09-29T04:49:35.474Z,100.00
2022-09-29T04:52:05.024Z,100.00
2022-09-29T04:54:37.922Z,100.00
2022-09-29T04:57:07.412Z,100.00
2022-09-29T04:59:35.678Z,100.00
2022-09-29T05:02:04.351Z,100.00
2022-09-29T05:04:32.705Z,100.00
2022-09-29T05:07:01.091Z,100.00
2022-09-29T05:09:33.235Z,100.00
2022-09-29T05:12:02.681Z,100.00
2022-09-29T05:14:31.061Z,100.00
2022-09-29T05:16:59.507Z,100.00
2022-09-29T05:19:28.043Z,100.00
2022-09-29T05:21:56.421Z,100.00
2022-09-29T05:24:25.744Z,100.00
2022-09-29T05:26:58.351Z,100.00
2022-09-29T05:29:27.249Z,100.00
2022-09-29T05:31:55.663Z,100.00
2022-09-29T05:34:24.110Z,100.00
2022-09-29T05:36:52.457Z,100.00
2022-09-29T05:39:21.199Z,100.00
2022-09-29T05:41:49.719Z,100.00
2022-09-29T05:44:18.177Z,100.00
2022-09-29T05:46:47.156Z,100.00
2022-09-29T05:49:15.637Z,100.00
2022-09-29T05:51:43.952Z,100.00
2022-09-29T05:54:13.026Z,100.00
2022-09-29T05:56:45.142Z,100.00
2022-09-29T05:59:14.104Z,100.00
2022-09-29T06:01:42.478Z,100.00
2022-09-29T06:04:12.279Z,100.00
2022-09-29T06:06:40.688Z,100.00
2022-09-29T06:09:09.223Z,100.00
2022-09-29T06:11:37.505Z,100.00
2022-09-29T06:14:06.472Z,100.00
2022-09-29T06:16:35.257Z,100.00
2022-09-29T06:19:05.042Z,100.00
2022-09-29T06:21:35.385Z,100.00
2022-09-29T06:24:04.339Z,100.00
2022-09-29T06:26:33.020Z,100.00
2022-09-29T06:29:02.856Z,100.00
2022-09-29T06:31:32.293Z,100.00
2022-09-29T06:34:04.486Z,100.00
2022-09-29T06:36:59.555Z,100.00
2022-09-29T06:39:28.810Z,100.00
2022-09-29T06:41:57.649Z,100.00
2022-09-29T06:44:29.086Z,100.00
2022-09-29T06:46:58.861Z,100.00
2022-09-29T06:49:27.515Z,100.00
2022-09-29T06:51:55.941Z,100.00
2022-09-29T06:54:27.238Z,100.00
2022-09-29T06:56:55.997Z,100.00
2022-09-29T06:59:24.806Z,100.00
2022-09-29T07:01:53.473Z,100.00
2022-09-29T07:04:23.050Z,100.00
2022-09-29T07:06:51.876Z,100.00
2022-09-29T07:09:24.985Z,100.00
2022-09-29T07:11:53.425Z,100.00
2022-09-29T07:14:23.934Z,100.00
2022-09-29T07:16:55.421Z,100.00
2022-09-29T07:19:23.813Z,100.00
2022-09-29T07:21:52.303Z,100.00
2022-09-29T07:24:20.649Z,100.00
2022-09-29T07:26:49.074Z,100.00
2022-09-29T07:29:17.702Z,100.00
2022-09-29T07:31:52.377Z,100.00
2022-09-29T07:34:22.721Z,100.00
2022-09-29T07:36:51.180Z,100.00
2022-09-29T07:39:21.655Z,100.00
2022-09-29T07:41:50.234Z,100.00
2022-09-29T07:44:18.657Z,100.00
2022-09-29T07:46:49.972Z,100.00
2022-09-29T07:49:18.766Z,100.00
2022-09-29T07:51:48.080Z,100.00
2022-09-29T07:54:16.555Z,100.00
2022-09-29T07:56:44.980Z,100.00
2022-09-29T07:59:13.472Z,100.00
2022-09-29T08:01:41.770Z,100.00
2022-09-29T08:04:10.067Z,100.00
2022-09-29T08:06:40.075Z,100.00
2022-09-29T08:09:08.373Z,100.00
2022-09-29T08:11:43.072Z,100.00
2022-09-29T08:14:11.921Z,100.00
2022-09-29T08:16:40.418Z,100.00
2022-09-29T08:19:08.950Z,100.00
2022-09-29T08:21:38.042Z,100.00
2022-09-29T08:24:07.341Z,100.00
2022-09-29T08:26:43.240Z,100.00
2022-09-29T08:29:17.272Z,100.00
2022-09-29T08:31:47.386Z,100.00
2022-09-29T08:34:16.136Z,100.00
2022-09-29T08:36:45.245Z,100.00
2022-09-29T08:39:15.430Z,100.00
2022-09-29T08:42:36.771Z,100.00
2022-09-29T08:45:16.731Z,100.00
2022-09-29T08:47:49.380Z,100.00
2022-09-29T08:50:53.552Z,100.00
2022-09-29T08:53:28.755Z,100.00
2022-09-29T08:56:07.003Z,100.00
2022-09-29T08:58:38.466Z,100.00
2022-09-29T09:01:23.494Z,100.00
2022-09-29T09:04:34.133Z,100.00
2022-09-29T09:07:52.312Z,100.00
2022-09-29T09:10:38.915Z,100.00
2022-09-29T09:13:41.882Z,100.00
2022-09-29T09:16:21.511Z,100.00
2022-09-29T09:19:09.899Z,100.00
2022-09-29T09:21:52.038Z,100.00
2022-09-29T09:24:55.323Z,100.00
2022-09-29T09:27:36.708Z,100.00
2022-09-29T09:30:19.271Z,99.82
2022-09-29T09:32:54.287Z,98.19
2022-09-29T09:35:57.735Z,97.27
2022-09-29T09:38:46.515Z,96.49
2022-09-29T09:41:20.068Z,97.96
2022-09-29T09:44:06.007Z,97.65
2022-09-29T09:46:45.340Z,95.59
2022-09-29T09:49:35.429Z,94.61
2022-09-29T09:52:24.825Z,93.70
2022-09-29T09:55:01.211Z,92.02
2022-09-29T09:57:47.318Z,91.78
2022-09-29T10:00:41.310Z,90.95
2022-09-29T10:03:12.227Z,89.00
2022-09-29T10:05:48.490Z,88.30
2022-09-29T10:08:39.902Z,87.60
2022-09-29T10:11:27.591Z,86.92
2022-09-29T10:14:10.040Z,86.13
2022-09-29T10:16:54.905Z,86.02
2022-09-29T10:19:44.471Z,86.35
2022-09-29T10:22:15.443Z,86.32
2022-09-29T10:24:43.697Z,86.07
2022-09-29T10:27:20.491Z,85.44
2022-09-29T10:29:53.088Z,84.55
2022-09-29T10:32:38.499Z,84.45
2022-09-29T10:35:33.885Z,84.73
2022-09-29T10:38:15.689Z,84.38
2022-09-29T10:41:01.426Z,83.93
2022-09-29T10:43:38.135Z,83.95
2022-09-29T10:46:48.424Z,83.64
2022-09-29T10:49:21.147Z,84.23
2022-09-29T10:52:04.242Z,84.25
2022-09-29T10:54:37.698Z,84.24
2022-09-29T10:57:16.490Z,84.93
2022-09-29T10:59:50.780Z,85.73
2022-09-29T11:02:33.394Z,85.56
2022-09-29T11:05:16.329Z,85.27
2022-09-29T11:07:47.910Z,85.35
2022-09-29T11:10:38.938Z,85.48
2022-09-29T11:13:19.495Z,85.57
2022-09-29T11:15:48.256Z,83.60
2022-09-29T11:18:23.411Z,82.10
2022-09-29T11:21:23.416Z,81.95
2022-09-29T11:24:01.315Z,82.12
2022-09-29T11:27:08.143Z,82.22
2022-09-29T11:30:17.844Z,81.66
2022-09-29T11:33:33.634Z,81.24
2022-09-29T11:36:27.560Z,80.06
2022-09-29T11:39:24.687Z,79.09
2022-09-29T11:42:34.342Z,78.01
2022-09-29T11:45:08.403Z,75.95
2022-09-29T11:48:06.501Z,74.91
2022-09-29T11:51:13.903Z,74.12
2022-09-29T11:54:03.994Z,73.52
2022-09-29T11:56:48.349Z,72.19
2022-09-29T11:59:41.461Z,72.44
2022-09-29T12:02:28.444Z,72.81
2022-09-29T12:05:54.820Z,73.23
2022-09-29T12:09:08.136Z,73.34
2022-09-29T12:12:22.599Z,72.66
2022-09-29T12:15:21.579Z,72.37
2022-09-29T12:17:59.898Z,71.37
2022-09-29T12:20:36.864Z,71.19
2022-09-29T12:23:12.438Z,70.01
2022-09-29T12:26:17.826Z,68.57
2022-09-29T12:29:03.237Z,67.97
2022-09-29T12:31:43.394Z,67.23
2022-09-29T12:34:40.349Z,66.87
2022-09-29T12:37:33.338Z,66.72
2022-09-29T12:40:17.185Z,66.53
2022-09-29T12:43:20.272Z,65.42
2022-09-29T12:45:55.047Z,63.81
2022-09-29T12:48:57.704Z,63.81
2022-09-29T12:51:46.337Z,63.65
2022-09-29T12:54:47.167Z,64.16
2022-09-29T12:57:20.562Z,64.53
2022-09-29T13:00:14.380Z,63.90
2022-09-29T13:03:36.708Z,64.24
2022-09-29T13:06:24.499Z,64.95
2022-09-29T13:09:39.715Z,64.96
2022-09-29T13:12:30.462Z,64.42
2022-09-29T13:15:26.779Z,63.02
2022-09-29T13:19:14.710Z,62.97
2022-09-29T13:22:22.313Z,62.35
2022-09-29T13:25:28.677Z,61.87
2022-09-29T13:27:57.957Z,61.42
2022-09-29T13:30:32.264Z,60.69
2022-09-29T13:33:25.744Z,60.39
2022-09-29T13:35:54.473Z,60.33
2022-09-29T13:38:39.305Z,59.99
2022-09-29T13:41:17.153Z,59.82
2022-09-29T13:43:51.421Z,58.90
2022-09-29T13:46:27.294Z,58.99
2022-09-29T13:49:13.887Z,58.39
2022-09-29T13:52:11.762Z,58.55
2022-09-29T13:54:41.524Z,58.42
2022-09-29T13:57:26.519Z,57.94
2022-09-29T13:59:56.314Z,56.82
2022-09-29T14:02:38.833Z,56.04
2022-09-29T14:05:27.433Z,55.86
2022-09-29T14:07:58.803Z,55.98
2022-09-29T14:10:36.137Z,55.82
2022-09-29T14:13:10.911Z,55.41
2022-09-29T14:16:25.459Z,55.12
2022-09-29T14:19:21.518Z,55.44
2022-09-29T14:21:59.054Z,55.31
2022-09-29T14:24:42.579Z,55.13
2022-09-29T14:28:01.525Z,55.05
2022-09-29T14:30:35.970Z,54.35
2022-09-29T14:33:25.618Z,53.87
2022-09-29T14:35:59.608Z,53.31
2022-09-29T14:38:39.133Z,53.32
2022-09-29T14:41:07.592Z,52.99
2022-09-29T14:43:54.527Z,52.62
2022-09-29T14:47:04.828Z,52.23
2022-09-29T14:50:29.189Z,52.10
2022-09-29T14:53:16.714Z,51.65
2022-09-29T14:56:15.595Z,50.96
2022-09-29T14:59:20.959Z,50.77
2022-09-29T15:02:21.788Z,51.05
2022-09-29T15:04:50.396Z,51.21
2022-09-29T15:07:28.810Z,51.46
2022-09-29T15:09:59.761Z,51.68
2022-09-29T15:12:31.835Z,51.58
2022-09-29T15:15:01.723Z,51.36
2022-09-29T15:17:42.318Z,51.53
2022-09-29T15:20:41.574Z,51.24
2022-09-29T15:24:04.465Z,50.77
2022-09-29T15:26:34.451Z,50.18
2022-09-29T15:29:07.718Z,50.18
2022-09-29T15:31:36.418Z,50.21
2022-09-29T15:34:05.297Z,50.11
2022-09-29T15:36:41.350Z,50.11
2022-09-29T15:39:39.049Z,49.34
2022-09-29T15:42:22.168Z,48.15
2022-09-29T15:45:00.108Z,48.49
2022-09-29T15:47:35.346Z,48.51
2022-09-29T15:50:26.247Z,48.61
2022-09-29T15:52:55.324Z,48.59
2022-09-29T15:55:25.466Z,48.24
2022-09-29T15:57:54.742Z,48.08
2022-09-29T16:00:22.958Z,48.37
2022-09-29T16:03:24.077Z,48.86
2022-09-29T16:06:22.687Z,49.12
2022-09-29T16:08:58.578Z,49.07
2022-09-29T16:11:40.088Z,49.04
2022-09-29T16:14:25.486Z,49.38
2022-09-29T16:16:57.293Z,49.87
2022-09-29T16:19:31.858Z,50.48
2022-09-29T16:22:03.095Z,50.78
2022-09-29T16:24:50.394Z,51.14
2022-09-29T16:27:44.014Z,51.90
2022-09-29T16:30:35.964Z,52.42
2022-09-29T16:33:21.754Z,53.31
2022-09-29T16:36:04.219Z,53.89
2022-09-29T16:38:38.891Z,54.62
2022-09-29T16:41:37.901Z,55.45
2022-09-29T16:44:16.280Z,56.39
2022-09-29T16:47:19.718Z,57.04
2022-09-29T16:49:58.301Z,57.93
2022-09-29T16:52:42.778Z,58.55
2022-09-29T16:55:21.181Z,59.23
2022-09-29T16:57:59.179Z,59.72
2022-09-29T17:00:27.783Z,60.36
2022-09-29T17:02:57.771Z,60.93
2022-09-29T17:05:27.451Z,61.25
2022-09-29T17:08:04.891Z,61.68
2022-09-29T17:10:39.695Z,62.25
2022-09-29T17:13:14.051Z,62.60
2022-09-29T17:15:46.386Z,63.21
2022-09-29T17:18:17.236Z,63.58
2022-09-29T17:20:46.353Z,63.79
2022-09-29T17:23:14.683Z,64.37
2022-09-29T17:25:46.405Z,64.70
2022-09-29T17:28:24.535Z,65.02
2022-09-29T17:30:55.630Z,65.65
2022-09-29T17:33:24.051Z,65.98
2022-09-29T17:35:55.895Z,66.41
2022-09-29T17:38:25.780Z,66.88
2022-09-29T17:41:07.556Z,67.19
2022-09-29T17:43:35.936Z,67.89
2022-09-29T17:46:05.922Z,68.08
2022-09-29T17:48:35.977Z,68.60
2022-09-29T17:51:06.247Z,68.92
2022-09-29T17:53:34.568Z,69.34
2022-09-29T17:56:03.489Z,69.58
2022-09-29T17:58:31.831Z,69.70
2022-09-29T18:01:00.179Z,69.89
2022-09-29T18:03:29.588Z,70.28
2022-09-29T18:06:00.040Z,70.60
2022-09-29T18:08:29.602Z,70.92
2022-09-29T18:11:01.250Z,71.26
2022-09-29T18:13:34.132Z,71.70
2022-09-29T18:16:02.486Z,71.85
2022-09-29T18:18:30.869Z,72.10
2022-09-29T18:21:01.372Z,72.45
2022-09-29T18:23:31.235Z,72.82
2022-09-29T18:25:59.602Z,72.95
2022-09-29T18:28:27.892Z,73.31
2022-09-29T18:31:12.882Z,73.64
2022-09-29T18:33:41.908Z,74.07
2022-09-29T18:36:11.636Z,74.16
2022-09-29T18:38:39.994Z,74.45
2022-09-29T18:41:16.113Z,74.65
2022-09-29T18:43:44.553Z,74.76
2022-09-29T18:46:14.531Z,75.07
2022-09-29T18:48:43.897Z,75.27
2022-09-29T18:51:13.576Z,75.40
2022-09-29T18:53:42.423Z,75.78
2022-09-29T18:56:19.109Z,75.87
2022-09-29T18:58:48.216Z,76.22
2022-09-29T19:01:23.563Z,76.32
2022-09-29T19:03:52.283Z,76.52
2022-09-29T19:06:21.502Z,76.72
2022-09-29T19:08:52.283Z,76.98
2022-09-29T19:11:25.518Z,77.08
2022-09-29T19:13:56.145Z,77.25
2022-09-29T19:16:28.164Z,77.45
2022-09-29T19:18:56.674Z,77.61
2022-09-29T19:21:25.444Z,77.82
2022-09-29T19:23:54.035Z,78.01
2022-09-29T19:26:25.148Z,78.33
2022-09-29T19:28:53.499Z,78.55
2022-09-29T19:31:23.497Z,78.75
2022-09-29T19:33:51.990Z,79.06
2022-09-29T19:36:21.857Z,79.18
2022-09-29T19:38:50.777Z,79.53
2022-09-29T19:41:23.495Z,79.60
2022-09-29T19:43:52.471Z,79.79
2022-09-29T19:46:22.707Z,79.93
2022-09-29T19:48:51.186Z,80.11
2022-09-29T19:51:38.979Z,80.17
2022-09-29T19:54:11.043Z,80.56
2022-09-29T19:56:54.048Z,80.57
2022-09-29T19:59:30.277Z,80.73
2022-09-29T20:02:00.832Z,80.88
2022-09-29T20:04:33.490Z,80.99
2022-09-29T20:07:02.941Z,81.35
2022-09-29T20:09:33.332Z,81.33
2022-09-29T20:12:02.868Z,81.49
2022-09-29T20:14:33.100Z,81.52
2022-09-29T20:17:02.140Z,81.88
2022-09-29T20:19:31.099Z,82.07
2022-09-29T20:21:59.633Z,82.20
2022-09-29T20:24:28.778Z,82.42
2022-09-29T20:26:57.939Z,82.47
2022-09-29T20:29:27.417Z,82.73
2022-09-29T20:31:55.785Z,82.92
2022-09-29T20:34:24.083Z,83.13
2022-09-29T20:36:54.818Z,83.15
2022-09-29T20:39:25.625Z,83.26
2022-09-29T20:41:55.409Z,83.39
2022-09-29T20:44:25.922Z,83.69
2022-09-29T20:46:56.245Z,83.74
2022-09-29T20:49:27.324Z,83.79
2022-09-29T20:51:55.999Z,84.00
2022-09-29T20:54:24.274Z,84.09
2022-09-29T20:56:53.819Z,84.23
2022-09-29T20:59:23.795Z,84.24
2022-09-29T21:01:53.482Z,84.42
2022-09-29T21:04:23.104Z,84.59
2022-09-29T21:06:53.026Z,84.69
2022-09-29T21:09:24.152Z,84.88
2022-09-29T21:11:54.633Z,84.83
2022-09-29T21:14:26.679Z,85.06
2022-09-29T21:16:55.234Z,85.20
2022-09-29T21:19:26.270Z,85.30
2022-09-29T21:21:56.308Z,85.26
2022-09-29T21:24:25.308Z,85.36
2022-09-29T21:26:54.042Z,85.39
2022-09-29T21:29:22.391Z,85.59
2022-09-29T21:31:51.169Z,85.67
2022-09-29T21:34:21.151Z,85.91
2022-09-29T21:36:49.847Z,86.10
2022-09-29T21:39:18.198Z,86.39
2022-09-29T21:41:47.037Z,86.28
2022-09-29T21:44:24.030Z,86.53
2022-09-29T21:46:52.718Z,86.70
2022-09-29T21:49:21.362Z,86.71
2022-09-29T21:51:51.261Z,86.80
2022-09-29T21:54:23.526Z,86.87
2022-09-29T21:56:52.919Z,86.97
2022-09-29T21:59:22.879Z,87.27
2022-09-29T22:01:52.852Z,87.43
2022-09-29T22:04:21.645Z,87.54
2022-09-29T22:06:50.486Z,87.69
2022-09-29T22:09:21.707Z,87.73
2022-09-29T22:11:50.778Z,87.73
2022-09-29T22:14:19.934Z,88.14
2022-09-29T22:16:48.449Z,87.93
2022-09-29T22:19:32.749Z,88.09
2022-09-29T22:22:01.249Z,88.22
2022-09-29T22:24:29.630Z,88.17
2022-09-29T22:26:57.969Z,88.22
2022-09-29T22:29:26.319Z,88.38
2022-09-29T22:31:54.746Z,88.57
2022-09-29T22:34:23.084Z,88.46
2022-09-29T22:36:51.384Z,88.38
2022-09-29T22:39:19.878Z,88.45
2022-09-29T22:41:50.957Z,88.44
2022-09-29T22:44:19.355Z,88.56
2022-09-29T22:46:47.722Z,88.82
2022-09-29T22:49:16.071Z,89.07
2022-09-29T22:51:44.407Z,89.25
2022-09-29T22:54:14.228Z,89.29
2022-09-29T22:56:44.288Z,89.39
2022-09-29T22:59:13.287Z,89.41
2022-09-29T23:01:42.478Z,89.45
2022-09-29T23:04:11.150Z,89.47
2022-09-29T23:06:39.859Z,89.64
2022-09-29T23:09:10.914Z,89.70
2022-09-29T23:11:39.353Z,89.87
2022-09-29T23:14:08.161Z,90.07
2022-09-29T23:16:36.557Z,90.07
2022-09-29T23:19:04.995Z,90.15
2022-09-29T23:21:34.043Z,90.36
2022-09-29T23:24:02.362Z,90.37
2022-09-29T23:26:31.238Z,90.41
2022-09-29T23:29:00.902Z,90.53
2022-09-29T23:31:29.905Z,90.70
2022-09-29T23:34:00.385Z,90.73
2022-09-29T23:36:31.617Z,90.64
2022-09-29T23:39:14.434Z,90.77
2022-09-29T23:41:50.276Z,90.94
2022-09-29T23:44:23.201Z,90.90
2022-09-29T23:46:54.201Z,90.88
2022-09-29T23:49:28.914Z,90.79
2022-09-29T23:52:00.729Z,90.72
2022-09-29T23:54:32.312Z,90.64
2022-09-29T23:57:00.539Z,90.83
2022-09-29T23:59:28.809Z,90.80
